createdAt,value
2023-05-03T00:04:16.419Z,99451.80
2023-05-03T00:09:17.420Z,99453.05
2023-05-03T00:14:18.727Z,99451.88
2023-05-03T00:19:30.613Z,99448.33
2023-05-03T00:24:33.721Z,99449.52
2023-05-03T00:29:34.826Z,99450.70
2023-05-03T00:34:38.853Z,99445.08
2023-05-03T00:39:40.121Z,99439.83
2023-05-03T00:44:41.429Z,99445.67
2023-05-03T00:49:43.837Z,99442.56
2023-05-03T00:54:45.259Z,99447.00
2023-05-03T00:59:46.617Z,99446.11
2023-05-03T01:04:47.982Z,99443.02
2023-05-03T01:10:01.096Z,99435.15
2023-05-03T01:15:06.166Z,99442.67
2023-05-03T01:20:11.019Z,99446.06
2023-05-03T01:25:14.472Z,99449.92
2023-05-03T01:30:16.431Z,99453.34
2023-05-03T01:35:28.291Z,99456.09
2023-05-03T01:40:35.465Z,99455.02
2023-05-03T01:45:36.723Z,99457.39
2023-05-03T01:50:38.086Z,99457.88
2023-05-03T01:55:39.328Z,99460.80
2023-05-03T02:00:40.372Z,99462.39
2023-05-03T02:05:41.475Z,99460.70
2023-05-03T02:10:45.530Z,99462.77
2023-05-03T02:15:46.529Z,99461.75
2023-05-03T02:20:47.569Z,99461.40
2023-05-03T02:25:49.102Z,99460.10
2023-05-03T02:30:50.337Z,99462.44
2023-05-03T02:35:51.501Z,99466.89
2023-05-03T02:40:52.782Z,99469.43
2023-05-03T02:45:53.983Z,99474.02
2023-05-03T02:50:55.625Z,99476.35
2023-05-03T02:55:57.208Z,99477.86
2023-05-03T03:00:58.447Z,99482.94
2023-05-03T03:06:00.250Z,99490.53
2023-05-03T03:11:03.026Z,99490.26
2023-05-03T03:16:06.344Z,99495.48
2023-05-03T03:21:07.687Z,99497.50
2023-05-03T03:26:09.331Z,99494.42
2023-05-03T03:31:10.697Z,99494.73
2023-05-03T03:36:12.011Z,99502.17
2023-05-03T03:41:13.868Z,99503.86
2023-05-03T03:46:16.540Z,99512.09
2023-05-03T03:51:18.210Z,99512.80
2023-05-03T03:56:21.185Z,99512.47
2023-05-03T04:01:23.683Z,99518.77
2023-05-03T04:06:26.526Z,99525.57
2023-05-03T04:11:29.311Z,99528.42
2023-05-03T04:16:33.156Z,99534.01
2023-05-03T04:21:35.707Z,99536.62
2023-05-03T04:26:37.579Z,99543.05
2023-05-03T04:31:43.775Z,99550.89
2023-05-03T04:36:45.836Z,99565.37
2023-05-03T04:41:47.339Z,99575.02
2023-05-03T04:46:50.915Z,99578.13
2023-05-03T04:51:53.372Z,99579.52
2023-05-03T04:56:56.852Z,99591.11
2023-05-03T05:01:59.723Z,99596.20
2023-05-03T05:07:00.989Z,99604.48
2023-05-03T05:12:03.933Z,99608.11
2023-05-03T05:17:09.256Z,99617.24
2023-05-03T05:22:10.530Z,99614.48
2023-05-03T05:27:17.028Z,99613.44
2023-05-03T05:32:18.462Z,99619.26
2023-05-03T05:37:24.262Z,99626.70
2023-05-03T05:42:26.305Z,99628.83
2023-05-03T05:47:27.996Z,99639.61
2023-05-03T05:52:30.727Z,99641.05
2023-05-03T05:57:32.102Z,99647.53
2023-05-03T06:02:33.614Z,99653.02
2023-05-03T06:07:35.317Z,99658.10
2023-05-03T06:12:37.013Z,99666.06
2023-05-03T06:17:40.348Z,99667.87
2023-05-03T06:22:41.808Z,99664.71
2023-05-03T06:27:44.499Z,99669.80
2023-05-03T06:32:47.219Z,99672.35
2023-05-03T06:37:48.833Z,99679.11
2023-05-03T06:42:49.914Z,99679.25
2023-05-03T06:47:58.267Z,99680.52
2023-05-03T06:52:59.471Z,99684.55
2023-05-03T06:58:00.803Z,99688.18
2023-05-03T07:03:01.906Z,99689.91
2023-05-03T07:08:08.780Z,99689.84
2023-05-03T07:13:10.118Z,99691.60
2023-05-03T07:18:11.082Z,99693.13
2023-05-03T07:23:12.200Z,99693.23
2023-05-03T07:28:13.324Z,99697.43
2023-05-03T07:33:14.469Z,99700.92
2023-05-03T07:38:16.176Z,99703.20
2023-05-03T07:43:18.966Z,99710.73
2023-05-03T07:48:20.069Z,99715.52
2023-05-03T07:53:21.141Z,99709.94
2023-05-03T07:58:31.439Z,99715.63
2023-05-03T08:03:40.698Z,99718.38
2023-05-03T08:08:42.260Z,99714.92
2023-05-03T08:13:43.246Z,99712.09
2023-05-03T08:18:45.299Z,99718.90
2023-05-03T08:23:46.432Z,99716.52
2023-05-03T08:28:47.507Z,99714.04
2023-05-03T08:33:48.703Z,99716.15
2023-05-03T08:38:49.943Z,99721.03
2023-05-03T08:43:53.612Z,99727.52
2023-05-03T08:48:55.286Z,99732.65
2023-05-03T08:53:56.245Z,99735.51
2023-05-03T08:59:04.248Z,99732.21
2023-05-03T09:04:06.413Z,99740.52
2023-05-03T09:09:30.793Z,99742.90
2023-05-03T09:14:42.618Z,99742.98
2023-05-03T09:19:51.996Z,99738.48
2023-05-03T09:24:55.505Z,99738.27
2023-05-03T09:29:56.724Z,99746.33
2023-05-03T09:35:08.925Z,99753.11
2023-05-03T09:40:11.708Z,99757.54
2023-05-03T09:45:23.148Z,99754.73
2023-05-03T09:50:24.980Z,99752.12
2023-05-03T09:55:27.386Z,99753.70
2023-05-03T10:00:29.939Z,99760.98
2023-05-03T10:05:33.006Z,99754.21
2023-05-03T10:10:34.956Z,99751.90
2023-05-03T10:15:38.714Z,99749.41
2023-05-03T10:20:44.995Z,99751.59
2023-05-03T10:26:12.746Z,99749.23
2023-05-03T10:31:46.323Z,99745.27
2023-05-03T10:36:50.218Z,99748.75
2023-05-03T10:41:59.107Z,99749.67
2023-05-03T10:47:12.183Z,99746.84
2023-05-03T10:52:35.221Z,99749.48
2023-05-03T10:57:40.364Z,99744.08
2023-05-03T11:03:25.405Z,99743.79
2023-05-03T11:08:27.347Z,99738.15
2023-05-03T11:13:28.623Z,99734.15
2023-05-03T11:18:31.183Z,99736.55
2023-05-03T11:23:32.403Z,99737.05
2023-05-03T11:28:33.462Z,99737.17
2023-05-03T11:33:36.943Z,99736.08
2023-05-03T11:38:38.869Z,99734.69
2023-05-03T11:43:44.806Z,99734.06
2023-05-03T11:48:46.438Z,99735.58
2023-05-03T11:53:47.969Z,99732.36
2023-05-03T11:58:59.365Z,99729.45
2023-05-03T12:04:03.310Z,99727.87
2023-05-03T12:09:14.616Z,99722.29
2023-05-03T12:14:16.184Z,99725.77
2023-05-03T12:19:32.060Z,99723.08
2023-05-03T12:24:34.617Z,99718.19
2023-05-03T12:29:36.295Z,99714.79
2023-05-03T12:34:40.910Z,99714.41
2023-05-03T12:39:45.927Z,99707.73
2023-05-03T12:44:53.690Z,99705.34
2023-05-03T12:49:57.574Z,99686.52
2023-05-03T12:55:03.661Z,99700.29
2023-05-03T13:00:14.051Z,99703.14
2023-05-03T13:05:26.801Z,99708.74
2023-05-03T13:10:36.516Z,99702.77
2023-05-03T13:15:37.951Z,99699.55
2023-05-03T13:20:39.005Z,99694.33
2023-05-03T13:25:40.379Z,99685.02
2023-05-03T13:30:41.594Z,99688.90
2023-05-03T13:35:42.775Z,99676.30
2023-05-03T13:40:43.963Z,99670.98
2023-05-03T13:45:45.009Z,99670.91
2023-05-03T13:50:46.108Z,99667.41
2023-05-03T13:55:47.360Z,99669.77
2023-05-03T14:00:48.453Z,99668.59
2023-05-03T14:05:49.492Z,99665.83
2023-05-03T14:10:50.517Z,99662.60
2023-05-03T14:15:51.727Z,99659.13
2023-05-03T14:20:53.370Z,99660.66
2023-05-03T14:25:54.419Z,99661.65
2023-05-03T14:30:56.120Z,99660.14
2023-05-03T14:35:57.714Z,99659.54
2023-05-03T14:40:58.876Z,99659.08
2023-05-03T14:46:01.135Z,99660.15
2023-05-03T14:51:03.140Z,99664.81
2023-05-03T14:56:04.304Z,99663.38
2023-05-03T15:01:05.780Z,99666.20
2023-05-03T15:06:07.432Z,99663.21
2023-05-03T15:11:09.514Z,99668.44
2023-05-03T15:16:10.983Z,99662.41
2023-05-03T15:21:12.303Z,99663.33
2023-05-03T15:26:13.731Z,99668.10
2023-05-03T15:31:15.560Z,99669.83
2023-05-03T15:36:16.812Z,99666.53
2023-05-03T15:41:18.331Z,99668.99
2023-05-03T15:46:19.369Z,99672.41
2023-05-03T15:51:20.857Z,99668.56
2023-05-03T15:56:22.099Z,99662.11
2023-05-03T16:01:24.087Z,99666.89
2023-05-03T16:06:25.258Z,99645.14
2023-05-03T16:11:26.442Z,99662.38
2023-05-03T16:16:27.548Z,99658.48
2023-05-03T16:21:28.846Z,99657.80
2023-05-03T16:26:31.158Z,99655.40
2023-05-03T16:31:32.624Z,99656.27
2023-05-03T16:36:34.478Z,99649.37
2023-05-03T16:41:36.252Z,99649.38
2023-05-03T16:46:39.470Z,99652.96
2023-05-03T16:51:40.957Z,99650.70
2023-05-03T16:56:44.749Z,99654.13
2023-05-03T17:01:46.015Z,99655.68
2023-05-03T17:06:47.822Z,99653.77
2023-05-03T17:11:48.884Z,99655.80
2023-05-03T17:16:50.600Z,99659.26
2023-05-03T17:21:52.023Z,99661.89
2023-05-03T17:26:54.797Z,99665.23
2023-05-03T17:31:56.020Z,99667.86
2023-05-03T17:36:59.603Z,99670.11
2023-05-03T17:42:00.968Z,99676.96
2023-05-03T17:47:03.071Z,99684.67
2023-05-03T17:52:04.273Z,99686.19
2023-05-03T17:57:06.288Z,99690.60
2023-05-03T18:02:07.540Z,99682.95
2023-05-03T18:07:08.841Z,99687.42
2023-05-03T18:12:10.035Z,99688.96
2023-05-03T18:17:11.069Z,99690.95
2023-05-03T18:22:12.637Z,99696.98
2023-05-03T18:27:13.700Z,99700.36
2023-05-03T18:32:15.057Z,99695.29
2023-05-03T18:37:16.126Z,99703.76
2023-05-03T18:42:19.849Z,99705.54
2023-05-03T18:47:21.344Z,99709.48
2023-05-03T18:52:23.037Z,99709.80
2023-05-03T18:57:26.711Z,99710.69
2023-05-03T19:02:30.407Z,99711.28
2023-05-03T19:07:31.716Z,99710.96
2023-05-03T19:12:34.364Z,99713.04
2023-05-03T19:17:36.316Z,99715.13
2023-05-03T19:22:37.585Z,99719.67
2023-05-03T19:27:38.919Z,99717.20
2023-05-03T19:32:40.103Z,99716.57
2023-05-03T19:37:43.117Z,99713.66
2023-05-03T19:42:44.385Z,99721.02
2023-05-03T19:47:45.527Z,99719.54
2023-05-03T19:52:46.633Z,99723.20
2023-05-03T19:57:48.744Z,99718.34
2023-05-03T20:02:51.796Z,99718.88
2023-05-03T20:07:53.039Z,99720.48
2023-05-03T20:12:54.095Z,99720.02
2023-05-03T20:17:55.623Z,99715.41
2023-05-03T20:22:56.856Z,99716.17
2023-05-03T20:27:57.831Z,99717.42
2023-05-03T20:32:58.979Z,99722.86
2023-05-03T20:38:00.292Z,99716.27
2023-05-03T20:43:01.667Z,99715.33
2023-05-03T20:48:02.814Z,99719.14
2023-05-03T20:53:03.964Z,99715.16
2023-05-03T20:58:05.272Z,99720.26
2023-05-03T21:03:06.432Z,99720.78
2023-05-03T21:08:07.528Z,99726.48
2023-05-03T21:13:13.114Z,99724.39
2023-05-03T21:18:14.236Z,99696.10
2023-05-03T21:23:15.260Z,99716.08
2023-05-03T21:28:16.545Z,99712.69
2023-05-03T21:33:17.714Z,99715.30
2023-05-03T21:38:19.187Z,99719.52
2023-05-03T21:43:40.209Z,99716.25
2023-05-03T21:49:01.204Z,99714.54
2023-05-03T21:54:02.356Z,99716.90
2023-05-03T21:59:03.375Z,99721.69
2023-05-03T22:04:04.837Z,99718.00
2023-05-03T22:09:06.307Z,99718.55
2023-05-03T22:14:08.327Z,99723.83
2023-05-03T22:19:11.260Z,99725.65
2023-05-03T22:24:12.331Z,99715.81
2023-05-03T22:29:13.829Z,99720.82
2023-05-03T22:34:15.284Z,99716.67
2023-05-03T22:39:16.624Z,99715.16
2023-05-03T22:44:17.605Z,99712.91
2023-05-03T22:49:18.972Z,99708.02
2023-05-03T22:54:21.204Z,99705.73
2023-05-03T22:59:22.348Z,99706.64
2023-05-03T23:04:23.568Z,99702.32
2023-05-03T23:09:25.777Z,99701.83
2023-05-03T23:14:34.559Z,99699.20
2023-05-03T23:19:36.408Z,99696.52
2023-05-03T23:24:38.801Z,99695.97
2023-05-03T23:29:39.986Z,99697.88
2023-05-03T23:34:46.146Z,99695.39
2023-05-03T23:40:07.807Z,99692.36
2023-05-03T23:45:09.711Z,99697.17
2023-05-03T23:50:15.439Z,99694.50
2023-05-03T23:55:16.498Z,99691.13
